N14654 KSLC-KASE
Flight info
| Callsign | N14654 |
|---|---|
| Flight time | 0h 47m |
| Altitude | 41000 |
| Route | RUGGD3 EKR DBL |
| Aircraft | C25C/M-SDE2E3FGHRWXY/LB1 |
Departure
| Time | 2026-04-24 21:41 |
|---|---|
| Airport | Salt Lake City International Airport (KSLC) |
Arrival
| Time | 2026-04-24 22:28 |
|---|---|
| Airport | Aspen-Pitkin County Airport (Sardy Field) (KASE) |
| Time | Latitude | Longitude | Altitude | Speed | Heading |
|---|---|---|---|---|---|
| 2026-04-24 21:17 | 40.79438 | -111.98146 | 4228 ft | 0 kts | 354° |
| 2026-04-24 21:33 | 40.79432 | -111.98145 | 4228 ft | 2 kts | 354° |
| 2026-04-24 21:33 | 40.79416 | -111.98147 | 4227 ft | 2 kts | 54° |
| 2026-04-24 21:33 | 40.79415 | -111.98151 | 4227 ft | 0 kts | 75° |
| 2026-04-24 21:34 | 40.79417 | -111.98121 | 4227 ft | 13 kts | 86° |
| 2026-04-24 21:34 | 40.79428 | -111.97946 | 4225 ft | 20 kts | 84° |
| 2026-04-24 21:35 | 40.79423 | -111.97870 | 4225 ft | 5 kts | 141° |
| 2026-04-24 21:35 | 40.79371 | -111.97848 | 4226 ft | 12 kts | 176° |
| 2026-04-24 21:35 | 40.79281 | -111.97838 | 4228 ft | 14 kts | 175° |
| 2026-04-24 21:35 | 40.79155 | -111.97829 | 4230 ft | 22 kts | 178° |
| 2026-04-24 21:36 | 40.79004 | -111.97742 | 4234 ft | 27 kts | 145° |
| 2026-04-24 21:36 | 40.78803 | -111.97680 | 4231 ft | 31 kts | 167° |
| 2026-04-24 21:36 | 40.78589 | -111.97662 | 4231 ft | 32 kts | 174° |
| 2026-04-24 21:36 | 40.78363 | -111.97635 | 4225 ft | 32 kts | 174° |
| 2026-04-24 21:37 | 40.78144 | -111.97607 | 4224 ft | 31 kts | 174° |
| 2026-04-24 21:37 | 40.77935 | -111.97576 | 4227 ft | 29 kts | 168° |
| 2026-04-24 21:37 | 40.77749 | -111.97515 | 4229 ft | 27 kts | 175° |
| 2026-04-24 21:37 | 40.77583 | -111.97491 | 4229 ft | 18 kts | 155° |
| 2026-04-24 21:38 | 40.77558 | -111.97446 | 4228 ft | 0 kts | 99° |
| 2026-04-24 21:40 | 40.77558 | -111.97443 | 4228 ft | 4 kts | 98° |
| 2026-04-24 21:40 | 40.77616 | -111.97332 | 4227 ft | 18 kts | 354° |
| 2026-04-24 21:40 | 40.77670 | -111.97340 | 4228 ft | 36 kts | 355° |
| 2026-04-24 21:41 | 40.78274 | -111.97410 | 4257 ft | 132 kts | 355° |
| 2026-04-24 21:41 | 40.79396 | -111.97505 | 4600 ft | 193 kts | 356° |
| 2026-04-24 21:41 | 40.80823 | -111.97623 | 5576 ft | 212 kts | 355° |
| 2026-04-24 21:41 | 40.82474 | -111.97746 | 6079 ft | 267 kts | 358° |
| 2026-04-24 21:42 | 40.84300 | -111.97389 | 6405 ft | 256 kts | 17° |
| 2026-04-24 21:42 | 40.86079 | -111.96468 | 6543 ft | 286 kts | 19° |
| 2026-04-24 21:42 | 40.87863 | -111.95517 | 6462 ft | 279 kts | 19° |
| 2026-04-24 21:42 | 40.89694 | -111.94623 | 6292 ft | 270 kts | 17° |
| 2026-04-24 21:43 | 40.91350 | -111.93779 | 6033 ft | 249 kts | 20° |
| 2026-04-24 21:43 | 40.93020 | -111.92781 | 6207 ft | 284 kts | 21° |
| 2026-04-24 21:43 | 40.94931 | -111.91641 | 5869 ft | 297 kts | 23° |
| 2026-04-24 21:43 | 40.96678 | -111.90550 | 6403 ft | 272 kts | 21° |
| 2026-04-24 21:44 | 40.98260 | -111.89377 | 7173 ft | 260 kts | 29° |
| 2026-04-24 21:44 | 40.99814 | -111.87768 | 7420 ft | 305 kts | 44° |
| 2026-04-24 21:44 | 41.01205 | -111.85683 | 8761 ft | 292 kts | 48° |
| 2026-04-24 21:44 | 41.02450 | -111.83509 | 9433 ft | 301 kts | 53° |
| 2026-04-24 21:45 | 41.03583 | -111.81041 | 9452 ft | 326 kts | 61° |
| 2026-04-24 21:45 | 41.04268 | -111.78125 | 9856 ft | 335 kts | 84° |
| 2026-04-24 21:45 | 41.04141 | -111.74995 | 10185 ft | 354 kts | 100° |
| 2026-04-24 21:45 | 41.03456 | -111.71751 | 10662 ft | 364 kts | 114° |
| 2026-04-24 21:46 | 41.02304 | -111.68690 | 11298 ft | 374 kts | 124° |
| 2026-04-24 21:46 | 41.00656 | -111.65901 | 11128 ft | 392 kts | 135° |
| 2026-04-24 21:46 | 40.98834 | -111.63476 | 11061 ft | 358 kts | 140° |
| 2026-04-24 21:46 | 40.97133 | -111.61332 | 11395 ft | 321 kts | 141° |
| 2026-04-24 21:47 | 40.95540 | -111.59442 | 11669 ft | 290 kts | 144° |
| 2026-04-24 21:47 | 40.94561 | -111.58362 | 12192 ft | 271 kts | 147° |
| 2026-04-24 21:47 | 40.92439 | -111.56342 | 12248 ft | 298 kts | 153° |
| 2026-04-24 21:47 | 40.90592 | -111.54902 | 12191 ft | 318 kts | 156° |
| 2026-04-24 21:48 | 40.88525 | -111.53511 | 12514 ft | 340 kts | 159° |
| 2026-04-24 21:48 | 40.86357 | -111.52253 | 13563 ft | 339 kts | 162° |
| 2026-04-24 21:48 | 40.84141 | -111.51139 | 14409 ft | 344 kts | 166° |
| 2026-04-24 21:48 | 40.81839 | -111.50158 | 15030 ft | 354 kts | 168° |
| 2026-04-24 21:49 | 40.79422 | -111.49304 | 15627 ft | 361 kts | 172° |
| 2026-04-24 21:49 | 40.76956 | -111.48608 | 16345 ft | 364 kts | 175° |
| 2026-04-24 21:49 | 40.74522 | -111.47853 | 17759 ft | 348 kts | 162° |
| 2026-04-24 21:49 | 40.72204 | -111.46478 | 17549 ft | 392 kts | 161° |
| 2026-04-24 21:50 | 40.69735 | -111.45131 | 17766 ft | 378 kts | 165° |
| 2026-04-24 21:50 | 40.67294 | -111.43962 | 17729 ft | 367 kts | 168° |
| 2026-04-24 21:50 | 40.64884 | -111.42965 | 17699 ft | 358 kts | 170° |
| 2026-04-24 21:50 | 40.62509 | -111.42146 | 18166 ft | 356 kts | 173° |
| 2026-04-24 21:51 | 40.60046 | -111.41474 | 18597 ft | 367 kts | 176° |
| 2026-04-24 21:51 | 40.57635 | -111.40273 | 19416 ft | 385 kts | 152° |
| 2026-04-24 21:51 | 40.55748 | -111.37584 | 19609 ft | 422 kts | 126° |
| 2026-04-24 21:51 | 40.54381 | -111.33991 | 18454 ft | 448 kts | 116° |
| 2026-04-24 21:52 | 40.53203 | -111.30569 | 19187 ft | 386 kts | 118° |
| 2026-04-24 21:52 | 40.52009 | -111.27411 | 19547 ft | 392 kts | 122° |
| 2026-04-24 21:52 | 40.50656 | -111.24268 | 19945 ft | 408 kts | 125° |
| 2026-04-24 21:52 | 40.49023 | -111.21154 | 20364 ft | 420 kts | 131° |
| 2026-04-24 21:53 | 40.47146 | -111.18151 | 20809 ft | 430 kts | 136° |
| 2026-04-24 21:53 | 40.45051 | -111.15298 | 21274 ft | 437 kts | 141° |
| 2026-04-24 21:53 | 40.42764 | -111.12632 | 21751 ft | 441 kts | 145° |
| 2026-04-24 21:53 | 40.40311 | -111.10181 | 22249 ft | 445 kts | 150° |
| 2026-04-24 21:54 | 40.37703 | -111.07965 | 22747 ft | 446 kts | 154° |
| 2026-04-24 21:54 | 40.34983 | -111.06018 | 23262 ft | 446 kts | 159° |
| 2026-04-24 21:54 | 40.32156 | -111.04341 | 23710 ft | 445 kts | 163° |
| 2026-04-24 21:54 | 40.29262 | -111.02912 | 24147 ft | 446 kts | 165° |
| 2026-04-24 21:55 | 40.26555 | -111.00819 | 24570 ft | 460 kts | 147° |
| 2026-04-24 21:55 | 40.24308 | -110.97791 | 25010 ft | 470 kts | 130° |
| 2026-04-24 21:55 | 40.22749 | -110.94014 | 25496 ft | 477 kts | 113° |
| 2026-04-24 21:55 | 40.22029 | -110.89769 | 25993 ft | 480 kts | 96° |
| 2026-04-24 21:56 | 40.21812 | -110.85421 | 26522 ft | 478 kts | 94° |
| 2026-04-24 21:56 | 40.21674 | -110.81134 | 27054 ft | 477 kts | 92° |
| 2026-04-24 21:56 | 40.21545 | -110.76797 | 27554 ft | 477 kts | 94° |
| 2026-04-24 21:56 | 40.21361 | -110.72469 | 28058 ft | 477 kts | 95° |
| 2026-04-24 21:57 | 40.21161 | -110.68127 | 28569 ft | 477 kts | 94° |
| 2026-04-24 21:57 | 40.20990 | -110.63785 | 29091 ft | 478 kts | 94° |
| 2026-04-24 21:57 | 40.20823 | -110.59443 | 29620 ft | 479 kts | 94° |
| 2026-04-24 21:57 | 40.20644 | -110.55071 | 30099 ft | 482 kts | 95° |
| 2026-04-24 21:58 | 40.20452 | -110.50672 | 30543 ft | 486 kts | 95° |
| 2026-04-24 21:58 | 40.20267 | -110.46263 | 31170 ft | 484 kts | 95° |
| 2026-04-24 21:58 | 40.20083 | -110.41870 | 31752 ft | 483 kts | 95° |
| 2026-04-24 21:58 | 40.19900 | -110.37549 | 32286 ft | 483 kts | 95° |
| 2026-04-24 21:59 | 40.19707 | -110.33159 | 32806 ft | 482 kts | 95° |
| 2026-04-24 21:59 | 40.19517 | -110.28780 | 33300 ft | 482 kts | 95° |
| 2026-04-24 21:59 | 40.19325 | -110.24416 | 33779 ft | 481 kts | 95° |
| 2026-04-24 21:59 | 40.19130 | -110.20049 | 34189 ft | 480 kts | 95° |
| 2026-04-24 22:00 | 40.18938 | -110.15696 | 34609 ft | 479 kts | 95° |
| 2026-04-24 22:00 | 40.18741 | -110.11360 | 35037 ft | 478 kts | 94° |
| 2026-04-24 22:00 | 40.18544 | -110.07026 | 35464 ft | 476 kts | 94° |
| 2026-04-24 22:00 | 40.18345 | -110.02712 | 35894 ft | 475 kts | 94° |
| 2026-04-24 22:01 | 40.18145 | -109.98391 | 36323 ft | 474 kts | 94° |
| 2026-04-24 22:01 | 40.17948 | -109.94125 | 36749 ft | 473 kts | 94° |
| 2026-04-24 22:01 | 40.17745 | -109.89823 | 37174 ft | 472 kts | 94° |
| 2026-04-24 22:01 | 40.17546 | -109.85625 | 37603 ft | 470 kts | 94° |
| 2026-04-24 22:02 | 40.17343 | -109.81362 | 38018 ft | 470 kts | 94° |
| 2026-04-24 22:02 | 40.17137 | -109.77107 | 38433 ft | 469 kts | 94° |
| 2026-04-24 22:02 | 40.16935 | -109.72914 | 38739 ft | 468 kts | 94° |
| 2026-04-24 22:02 | 40.16727 | -109.68661 | 39041 ft | 468 kts | 94° |
| 2026-04-24 22:03 | 40.16517 | -109.64410 | 39350 ft | 468 kts | 94° |
| 2026-04-24 22:03 | 40.16307 | -109.60160 | 39665 ft | 468 kts | 94° |
| 2026-04-24 22:03 | 40.16094 | -109.55906 | 39984 ft | 468 kts | 94° |
| 2026-04-24 22:03 | 40.15881 | -109.51654 | 40305 ft | 467 kts | 94° |
| 2026-04-24 22:04 | 40.15666 | -109.47416 | 40573 ft | 468 kts | 94° |
| 2026-04-24 22:04 | 40.15228 | -109.38867 | 40690 ft | 480 kts | 94° |
| 2026-04-24 22:05 | 40.14769 | -109.30038 | 40692 ft | 493 kts | 94° |
| 2026-04-24 22:05 | 40.14301 | -109.21155 | 40689 ft | 485 kts | 94° |
| 2026-04-24 22:06 | 40.13833 | -109.12406 | 40688 ft | 479 kts | 94° |
| 2026-04-24 22:06 | 40.13364 | -109.03770 | 40681 ft | 474 kts | 95° |
| 2026-04-24 22:07 | 40.12896 | -108.95279 | 40679 ft | 469 kts | 95° |
| 2026-04-24 22:07 | 40.12420 | -108.86734 | 40684 ft | 478 kts | 95° |
| 2026-04-24 22:08 | 40.11922 | -108.77918 | 40504 ft | 496 kts | 95° |
| 2026-04-24 22:08 | 40.11663 | -108.73385 | 40391 ft | 503 kts | 95° |
| 2026-04-24 22:08 | 40.11403 | -108.68846 | 39912 ft | 500 kts | 95° |
| 2026-04-24 22:08 | 40.11143 | -108.64349 | 39514 ft | 494 kts | 95° |
| 2026-04-24 22:09 | 40.10883 | -108.59902 | 39117 ft | 488 kts | 95° |
| 2026-04-24 22:09 | 40.10627 | -108.55547 | 38555 ft | 489 kts | 95° |
| 2026-04-24 22:09 | 40.10366 | -108.51106 | 38436 ft | 487 kts | 95° |
| 2026-04-24 22:09 | 40.10105 | -108.46704 | 37860 ft | 487 kts | 95° |
| 2026-04-24 22:10 | 40.09839 | -108.42279 | 37174 ft | 490 kts | 95° |
| 2026-04-24 22:10 | 40.09570 | -108.37831 | 36503 ft | 493 kts | 95° |
| 2026-04-24 22:10 | 40.09300 | -108.33363 | 35920 ft | 493 kts | 95° |
| 2026-04-24 22:10 | 40.09030 | -108.28894 | 35303 ft | 495 kts | 96° |
| 2026-04-24 22:11 | 40.08752 | -108.24406 | 34619 ft | 496 kts | 96° |
| 2026-04-24 22:11 | 40.08475 | -108.19906 | 33960 ft | 499 kts | 96° |
| 2026-04-24 22:11 | 40.08196 | -108.15383 | 33255 ft | 500 kts | 96° |
| 2026-04-24 22:11 | 40.07910 | -108.10849 | 32545 ft | 500 kts | 96° |
| 2026-04-24 22:12 | 40.07624 | -108.06323 | 31836 ft | 501 kts | 96° |
| 2026-04-24 22:12 | 40.07314 | -108.01790 | 31079 ft | 501 kts | 98° |
| 2026-04-24 22:12 | 40.06633 | -107.97342 | 30350 ft | 499 kts | 107° |
| 2026-04-24 22:12 | 40.05550 | -107.93070 | 29974 ft | 488 kts | 115° |
| 2026-04-24 22:13 | 40.04165 | -107.89127 | 29970 ft | 469 kts | 122° |
| 2026-04-24 22:13 | 40.02510 | -107.85558 | 29970 ft | 452 kts | 130° |
| 2026-04-24 22:13 | 40.00646 | -107.82350 | 29949 ft | 438 kts | 134° |
| 2026-04-24 22:14 | 39.96944 | -107.76189 | 29773 ft | 428 kts | 134° |
| 2026-04-24 22:14 | 39.95102 | -107.73145 | 29462 ft | 428 kts | 134° |
| 2026-04-24 22:14 | 39.93256 | -107.70094 | 29042 ft | 431 kts | 134° |
| 2026-04-24 22:14 | 39.91389 | -107.67002 | 28477 ft | 436 kts | 134° |
| 2026-04-24 22:15 | 39.89572 | -107.63974 | 27881 ft | 406 kts | 133° |
| 2026-04-24 22:15 | 39.87888 | -107.61177 | 27166 ft | 380 kts | 134° |
| 2026-04-24 22:15 | 39.86288 | -107.58551 | 26486 ft | 362 kts | 134° |
| 2026-04-24 22:15 | 39.84752 | -107.56034 | 25826 ft | 348 kts | 134° |
| 2026-04-24 22:16 | 39.83277 | -107.53605 | 25170 ft | 337 kts | 134° |
| 2026-04-24 22:16 | 39.81848 | -107.51246 | 24542 ft | 326 kts | 134° |
| 2026-04-24 22:16 | 39.80487 | -107.49003 | 23952 ft | 314 kts | 133° |
| 2026-04-24 22:16 | 39.79578 | -107.47513 | 23516 ft | 309 kts | 134° |
| 2026-04-24 22:17 | 39.77828 | -107.44642 | 22547 ft | 301 kts | 133° |
| 2026-04-24 22:17 | 39.76542 | -107.42533 | 21810 ft | 296 kts | 134° |
| 2026-04-24 22:17 | 39.75278 | -107.40458 | 21098 ft | 291 kts | 133° |
| 2026-04-24 22:17 | 39.74029 | -107.38408 | 20404 ft | 287 kts | 133° |
| 2026-04-24 22:18 | 39.73196 | -107.37044 | 19944 ft | 283 kts | 134° |
| 2026-04-24 22:18 | 39.71973 | -107.35045 | 19280 ft | 282 kts | 134° |
| 2026-04-24 22:18 | 39.70757 | -107.33055 | 18641 ft | 279 kts | 134° |
| 2026-04-24 22:18 | 39.69556 | -107.31086 | 18006 ft | 278 kts | 134° |
| 2026-04-24 22:19 | 39.68372 | -107.29154 | 17300 ft | 277 kts | 134° |
| 2026-04-24 22:19 | 39.67138 | -107.27147 | 16629 ft | 291 kts | 134° |
| 2026-04-24 22:19 | 39.65857 | -107.25059 | 15977 ft | 300 kts | 133° |
| 2026-04-24 22:19 | 39.64545 | -107.22910 | 15333 ft | 308 kts | 133° |
| 2026-04-24 22:20 | 39.63201 | -107.20715 | 14696 ft | 312 kts | 134° |
| 2026-04-24 22:20 | 39.61837 | -107.18506 | 14059 ft | 316 kts | 133° |
| 2026-04-24 22:20 | 39.60494 | -107.16299 | 13835 ft | 303 kts | 134° |
| 2026-04-24 22:20 | 39.59224 | -107.14222 | 13818 ft | 285 kts | 134° |
| 2026-04-24 22:21 | 39.58024 | -107.12277 | 13823 ft | 270 kts | 134° |
| 2026-04-24 22:21 | 39.56878 | -107.10422 | 13822 ft | 259 kts | 134° |
| 2026-04-24 22:21 | 39.55766 | -107.08613 | 13818 ft | 253 kts | 134° |
| 2026-04-24 22:21 | 39.54694 | -107.06876 | 13922 ft | 241 kts | 134° |
| 2026-04-24 22:22 | 39.53666 | -107.05206 | 13945 ft | 234 kts | 134° |
| 2026-04-24 22:22 | 39.52663 | -107.03586 | 13946 ft | 227 kts | 134° |
| 2026-04-24 22:22 | 39.51649 | -107.01950 | 13949 ft | 242 kts | 135° |
| 2026-04-24 22:22 | 39.50550 | -107.00178 | 13958 ft | 260 kts | 134° |
| 2026-04-24 22:23 | 39.49394 | -106.98302 | 13966 ft | 268 kts | 133° |
| 2026-04-24 22:23 | 39.48239 | -106.96421 | 13963 ft | 266 kts | 133° |
| 2026-04-24 22:23 | 39.47092 | -106.94560 | 13963 ft | 268 kts | 133° |
| 2026-04-24 22:23 | 39.45935 | -106.92691 | 13961 ft | 264 kts | 134° |
| 2026-04-24 22:24 | 39.44771 | -106.90856 | 13948 ft | 263 kts | 138° |
| 2026-04-24 22:24 | 39.43294 | -106.89574 | 13928 ft | 253 kts | 167° |
| 2026-04-24 22:24 | 39.41607 | -106.89171 | 13976 ft | 242 kts | 181° |
| 2026-04-24 22:24 | 39.39941 | -106.88965 | 13989 ft | 239 kts | 181° |
| 2026-04-24 22:25 | 39.38301 | -106.88765 | 13998 ft | 234 kts | 184° |
| 2026-04-24 22:25 | 39.36698 | -106.88759 | 14001 ft | 227 kts | 187° |
| 2026-04-24 22:25 | 39.35109 | -106.88816 | 13785 ft | 233 kts | 188° |
| 2026-04-24 22:25 | 39.33545 | -106.88894 | 13155 ft | 209 kts | 190° |
| 2026-04-24 22:26 | 39.32118 | -106.89041 | 11998 ft | 204 kts | 194° |
| 2026-04-24 22:26 | 39.30754 | -106.89304 | 11067 ft | 193 kts | 195° |
| 2026-04-24 22:26 | 39.29393 | -106.89516 | 10066 ft | 197 kts | 188° |
| 2026-04-24 22:26 | 39.28074 | -106.89342 | 9427 ft | 183 kts | 174° |
| 2026-04-24 22:27 | 39.26931 | -106.88949 | 8942 ft | 154 kts | 171° |
| 2026-04-24 22:27 | 39.25947 | -106.88553 | 8559 ft | 142 kts | 169° |
| 2026-04-24 22:27 | 39.25042 | -106.88170 | 8288 ft | 133 kts | 162° |
| 2026-04-24 22:27 | 39.24200 | -106.87777 | 8092 ft | 124 kts | 164° |
| 2026-04-24 22:28 | 39.23420 | -106.87414 | 7901 ft | 118 kts | 162° |
| 2026-04-24 22:28 | 39.22718 | -106.87071 | 7817 ft | 92 kts | 163° |
| 2026-04-24 22:28 | 39.22235 | -106.86846 | 7812 ft | 48 kts | 160° |
| 2026-04-24 22:28 | 39.22037 | -106.86740 | 7814 ft | 20 kts | 128° |
| 2026-04-24 22:29 | 39.22099 | -106.86607 | 7814 ft | 0 kts | 316° |
| 2026-04-24 22:30 | 39.22112 | -106.86623 | 7814 ft | 0 kts | 328° |